createdAt,value
2022-12-22T00:01:55.872Z,8.70
2022-12-22T00:04:41.879Z,8.60
2022-12-22T00:07:27.510Z,8.50
2022-12-22T00:10:13.069Z,8.40
2022-12-22T00:12:58.748Z,8.40
2022-12-22T00:15:44.317Z,8.40
2022-12-22T00:18:33.960Z,8.50
2022-12-22T00:21:19.439Z,8.40
2022-12-22T00:24:04.956Z,8.50
2022-12-22T00:26:50.867Z,8.60
2022-12-22T00:29:36.598Z,8.70
2022-12-22T00:32:21.962Z,8.80
2022-12-22T00:35:07.984Z,8.90
2022-12-22T00:37:55.073Z,8.90
2022-12-22T00:40:45.117Z,8.80
2022-12-22T00:43:30.492Z,8.90
2022-12-22T00:46:16.504Z,8.80
2022-12-22T00:49:02.549Z,8.80
2022-12-22T00:51:48.604Z,8.80
2022-12-22T00:54:35.809Z,8.90
2022-12-22T00:57:21.763Z,8.90
2022-12-22T01:00:08.387Z,9.00
2022-12-22T01:02:54.214Z,8.90
2022-12-22T01:05:39.464Z,9.00
2022-12-22T01:08:24.987Z,8.90
2022-12-22T01:11:10.493Z,8.90
2022-12-22T01:13:56.083Z,8.90
2022-12-22T01:16:41.607Z,8.70
2022-12-22T01:19:26.960Z,8.60
2022-12-22T01:22:12.554Z,8.60
2022-12-22T01:24:57.904Z,8.60
2022-12-22T01:27:43.507Z,8.50
2022-12-22T01:30:28.945Z,8.50
2022-12-22T01:33:14.676Z,8.50
2022-12-22T01:36:00.093Z,8.60
2022-12-22T01:38:45.571Z,8.40
2022-12-22T01:41:34.508Z,8.40
2022-12-22T01:44:20.232Z,8.30
2022-12-22T01:47:05.790Z,8.30
2022-12-22T01:50:02.037Z,8.20
2022-12-22T01:52:50.600Z,8.20
2022-12-22T01:55:38.156Z,8.20
2022-12-22T01:58:27.165Z,8.30
2022-12-22T02:01:12.716Z,8.30
2022-12-22T02:03:58.859Z,8.40
2022-12-22T02:06:47.483Z,8.40
2022-12-22T02:09:42.661Z,8.40
2022-12-22T02:12:49.643Z,8.50
2022-12-22T02:15:43.265Z,8.50
2022-12-22T02:18:42.244Z,8.50
2022-12-22T02:21:33.433Z,8.60
2022-12-22T02:24:21.941Z,8.70
2022-12-22T02:27:12.994Z,8.80
2022-12-22T02:30:08.211Z,8.70
2022-12-22T02:32:55.269Z,8.80
2022-12-22T02:35:40.836Z,8.80
2022-12-22T02:39:02.155Z,8.80
2022-12-22T02:42:05.897Z,8.90
2022-12-22T02:44:54.406Z,8.90
2022-12-22T02:47:55.275Z,9.00
2022-12-22T02:50:49.973Z,9.00
2022-12-22T02:53:37.205Z,8.90
2022-12-22T02:56:26.297Z,9.00
2022-12-22T02:59:12.243Z,9.10
2022-12-22T03:01:59.912Z,9.10
2022-12-22T03:04:45.446Z,9.20
2022-12-22T03:07:31.525Z,9.20
2022-12-22T03:10:17.042Z,9.10
2022-12-22T03:13:02.508Z,9.10
2022-12-22T03:15:48.212Z,9.10
2022-12-22T03:18:33.751Z,9.10
2022-12-22T03:21:19.166Z,9.10
2022-12-22T03:24:04.703Z,9.10
2022-12-22T03:26:33.448Z,9.10
2022-12-22T03:29:00.371Z,9.10
2022-12-22T03:31:27.826Z,9.10
2022-12-22T03:33:54.955Z,9.10
2022-12-22T03:36:21.722Z,9.10
2022-12-22T03:38:48.594Z,9.20
2022-12-22T03:41:34.161Z,9.30
2022-12-22T03:44:19.624Z,9.40
2022-12-22T03:46:46.637Z,9.50
2022-12-22T03:49:13.539Z,9.50
2022-12-22T03:51:45.593Z,9.60
2022-12-22T03:54:13.774Z,9.60
2022-12-22T03:56:40.722Z,9.50
2022-12-22T03:59:07.597Z,9.50
2022-12-22T04:01:37.442Z,9.50
2022-12-22T04:04:04.494Z,9.60
2022-12-22T04:06:31.557Z,9.50
2022-12-22T04:08:58.433Z,9.40
2022-12-22T04:11:43.931Z,9.40
2022-12-22T04:14:10.721Z,9.40
2022-12-22T04:16:37.594Z,9.50
2022-12-22T04:19:04.570Z,9.50
2022-12-22T04:21:31.382Z,9.30
2022-12-22T04:23:58.199Z,9.30
2022-12-22T04:26:25.386Z,9.20
2022-12-22T04:28:52.970Z,9.30
2022-12-22T04:31:20.555Z,9.20
2022-12-22T04:33:47.620Z,9.10
2022-12-22T04:36:14.788Z,9.10
2022-12-22T04:38:41.776Z,9.10
2022-12-22T04:41:08.712Z,9.20
2022-12-22T04:43:35.956Z,9.20
2022-12-22T04:46:02.939Z,9.20
2022-12-22T04:48:30.624Z,9.20
2022-12-22T04:50:58.319Z,9.10
2022-12-22T04:53:27.965Z,9.10
2022-12-22T04:55:59.348Z,9.00
2022-12-22T04:58:26.600Z,9.00
2022-12-22T05:00:53.600Z,9.00
2022-12-22T05:03:20.569Z,9.10
2022-12-22T05:05:47.552Z,9.00
2022-12-22T05:08:14.522Z,9.00
2022-12-22T05:10:41.386Z,9.00
2022-12-22T05:13:08.352Z,9.00
2022-12-22T05:15:36.063Z,9.00
2022-12-22T05:18:03.630Z,9.00
2022-12-22T05:20:30.787Z,8.90
2022-12-22T05:22:58.866Z,9.00
2022-12-22T05:25:28.526Z,8.90
2022-12-22T05:27:58.337Z,8.90
2022-12-22T05:30:25.424Z,9.10
2022-12-22T05:32:52.341Z,9.00
2022-12-22T05:35:19.288Z,9.00
2022-12-22T05:37:46.233Z,9.00
2022-12-22T05:40:13.273Z,9.00
2022-12-22T05:42:40.291Z,9.00
2022-12-22T05:45:20.119Z,9.00
2022-12-22T05:47:48.263Z,9.10
2022-12-22T05:50:16.693Z,9.10
2022-12-22T05:52:43.809Z,9.10
2022-12-22T05:55:11.552Z,9.10
2022-12-22T05:57:38.454Z,9.10
2022-12-22T06:00:06.383Z,9.10
2022-12-22T06:02:39.412Z,9.10
2022-12-22T06:05:07.130Z,9.20
2022-12-22T06:07:34.022Z,9.20
2022-12-22T06:10:05.118Z,9.20
2022-12-22T06:12:36.735Z,9.40
2022-12-22T06:15:04.029Z,9.40
2022-12-22T06:17:30.919Z,9.30
2022-12-22T06:19:57.987Z,9.40
2022-12-22T06:22:24.940Z,9.30
2022-12-22T06:24:51.881Z,9.40
2022-12-22T06:27:18.802Z,9.50
2022-12-22T06:29:45.761Z,9.60
2022-12-22T06:32:12.658Z,9.50
2022-12-22T06:34:39.510Z,9.50
2022-12-22T06:37:06.563Z,9.50
2022-12-22T06:39:33.471Z,9.70
2022-12-22T06:42:19.153Z,9.70
2022-12-22T06:44:46.130Z,9.80
2022-12-22T06:47:13.060Z,9.80
2022-12-22T06:49:39.944Z,9.70
2022-12-22T06:52:09.899Z,9.70
2022-12-22T06:54:36.886Z,9.80
2022-12-22T06:57:03.745Z,9.80
2022-12-22T06:59:30.642Z,9.80
2022-12-22T07:01:57.651Z,9.80
2022-12-22T07:04:24.878Z,9.80
2022-12-22T07:06:51.917Z,9.70
2022-12-22T07:09:18.756Z,9.80
2022-12-22T07:11:45.671Z,9.80
2022-12-22T07:14:12.556Z,9.70
2022-12-22T07:16:39.586Z,9.70
2022-12-22T07:19:06.567Z,9.70
2022-12-22T07:21:33.454Z,9.70
2022-12-22T07:24:00.441Z,9.70
2022-12-22T07:26:27.378Z,9.70
2022-12-22T07:28:54.232Z,9.70
2022-12-22T07:31:21.300Z,9.60
2022-12-22T07:33:48.343Z,9.70
2022-12-22T07:36:19.457Z,9.70
2022-12-22T07:38:47.543Z,9.70
2022-12-22T07:41:34.159Z,9.70
2022-12-22T07:44:01.739Z,9.80
2022-12-22T07:46:29.783Z,9.90
2022-12-22T07:49:15.316Z,9.90
2022-12-22T07:51:42.644Z,10.00
2022-12-22T07:54:10.515Z,10.20
2022-12-22T07:56:37.540Z,10.30
2022-12-22T07:59:04.639Z,10.40
2022-12-22T08:01:31.646Z,10.50
2022-12-22T08:03:58.694Z,10.50
2022-12-22T08:06:25.564Z,10.50
2022-12-22T08:08:52.473Z,10.40
2022-12-22T08:11:19.473Z,10.40
2022-12-22T08:13:46.707Z,10.40
2022-12-22T08:16:13.975Z,10.50
2022-12-22T08:18:41.569Z,10.50
2022-12-22T08:21:08.698Z,10.50
2022-12-22T08:23:36.291Z,10.50
2022-12-22T08:26:10.629Z,10.50
2022-12-22T08:31:36.367Z,10.60
2022-12-22T08:34:54.728Z,10.60
2022-12-22T08:37:58.936Z,10.60
2022-12-22T08:41:11.918Z,10.60
2022-12-22T08:44:25.903Z,10.70
2022-12-22T08:47:17.510Z,10.80
2022-12-22T08:49:59.306Z,10.90
2022-12-22T08:53:05.631Z,11.00
2022-12-22T08:55:43.457Z,11.10
2022-12-22T08:58:18.209Z,11.20
2022-12-22T09:03:35.642Z,11.20
2022-12-22T09:06:12.332Z,11.00
2022-12-22T09:12:15.024Z,12.80
2022-12-22T09:14:50.472Z,10.70
2022-12-22T09:20:15.442Z,10.70
2022-12-22T09:23:22.155Z,10.80
2022-12-22T09:26:14.881Z,11.00
2022-12-22T09:28:49.872Z,11.10
2022-12-22T09:31:18.286Z,11.00
2022-12-22T09:33:45.299Z,10.70
2022-12-22T09:36:14.028Z,10.40
2022-12-22T09:38:42.691Z,10.30
2022-12-22T09:41:15.704Z,10.20
2022-12-22T09:43:42.959Z,10.20
2022-12-22T09:46:30.306Z,10.20
2022-12-22T09:48:57.355Z,10.30
2022-12-22T09:51:27.192Z,10.40
2022-12-22T09:53:57.194Z,10.60
2022-12-22T09:56:25.343Z,10.50
2022-12-22T09:58:52.348Z,10.50
2022-12-22T10:01:41.511Z,10.50
2022-12-22T10:04:08.510Z,10.40
2022-12-22T10:06:43.518Z,10.40
2022-12-22T10:12:14.025Z,10.30
2022-12-22T10:14:48.235Z,10.20
2022-12-22T10:17:31.526Z,10.30
2022-12-22T10:20:17.076Z,10.30
2022-12-22T10:22:50.147Z,10.40
2022-12-22T10:25:44.753Z,10.40
2022-12-22T10:28:19.453Z,10.30
2022-12-22T10:30:46.450Z,10.20
2022-12-22T10:33:14.575Z,10.20
2022-12-22T10:35:41.435Z,10.20
2022-12-22T10:38:21.306Z,10.20
2022-12-22T10:40:51.600Z,10.20
2022-12-22T10:43:35.040Z,10.30
2022-12-22T10:46:02.595Z,10.50
2022-12-22T10:48:33.995Z,10.80
2022-12-22T10:51:01.751Z,10.90
2022-12-22T10:53:52.517Z,10.90
2022-12-22T10:56:22.465Z,10.80
2022-12-22T10:58:57.221Z,10.80
2022-12-22T11:01:31.184Z,10.80
2022-12-22T11:03:59.181Z,10.90
2022-12-22T11:06:26.163Z,10.80
2022-12-22T11:08:53.110Z,10.80
2022-12-22T11:11:20.015Z,10.70
2022-12-22T11:13:59.228Z,10.70
2022-12-22T11:16:33.120Z,10.60
2022-12-22T11:19:12.147Z,10.50
2022-12-22T11:21:51.118Z,10.30
2022-12-22T11:24:40.698Z,10.20
2022-12-22T11:27:10.800Z,10.10
2022-12-22T11:29:37.669Z,10.10
2022-12-22T11:32:30.759Z,10.10
2022-12-22T11:34:57.684Z,10.10
2022-12-22T11:37:39.666Z,10.10
2022-12-22T11:40:06.820Z,10.10
2022-12-22T11:42:41.519Z,10.20
2022-12-22T11:45:17.705Z,10.20
2022-12-22T11:47:50.144Z,10.30
2022-12-22T11:51:00.806Z,10.50
2022-12-22T11:53:16.133Z,10.50
2022-12-22T11:55:44.832Z,10.60
2022-12-22T11:58:17.810Z,10.60
2022-12-22T12:01:20.379Z,10.70
2022-12-22T12:04:11.261Z,10.60
2022-12-22T12:06:52.684Z,10.80
2022-12-22T12:09:28.062Z,10.70
2022-12-22T12:12:04.723Z,10.70
2022-12-22T12:14:31.689Z,10.70
2022-12-22T12:16:59.856Z,10.60
2022-12-22T12:19:46.089Z,10.50
2022-12-22T12:22:29.089Z,10.50
2022-12-22T12:25:00.793Z,10.40
2022-12-22T12:27:37.017Z,10.40
2022-12-22T12:30:37.441Z,10.30
2022-12-22T12:33:03.422Z,10.20
2022-12-22T12:35:30.315Z,10.30
2022-12-22T12:38:03.132Z,10.20
2022-12-22T12:40:45.344Z,10.10
2022-12-22T12:43:16.403Z,10.10
2022-12-22T12:45:45.275Z,10.10
2022-12-22T12:48:21.556Z,10.20
2022-12-22T12:50:49.112Z,10.20
2022-12-22T12:53:16.872Z,10.10
2022-12-22T12:55:44.432Z,10.10
2022-12-22T12:58:12.365Z,10.10
2022-12-22T13:00:46.678Z,10.10
2022-12-22T13:03:52.949Z,10.20
2022-12-22T13:06:32.155Z,10.30
2022-12-22T13:09:22.261Z,10.30
2022-12-22T13:12:11.692Z,10.20
2022-12-22T13:14:56.136Z,10.30
2022-12-22T13:17:52.838Z,10.30
2022-12-22T13:20:25.989Z,10.40
2022-12-22T13:22:53.698Z,10.50
2022-12-22T13:25:21.312Z,10.60
2022-12-22T13:27:48.852Z,10.60
2022-12-22T13:30:18.033Z,10.70
2022-12-22T13:32:46.014Z,10.60
2022-12-22T13:38:00.028Z,10.80
2022-12-22T13:40:30.737Z,10.90
2022-12-22T13:43:03.022Z,11.00
2022-12-22T13:45:43.519Z,10.90
2022-12-22T13:48:35.990Z,10.90
2022-12-22T13:51:23.965Z,11.00
2022-12-22T13:54:12.243Z,11.20
2022-12-22T13:56:52.958Z,11.30
2022-12-22T13:59:28.752Z,11.30
2022-12-22T14:02:00.574Z,11.20
2022-12-22T14:04:28.371Z,11.10
2022-12-22T14:06:55.565Z,11.20
2022-12-22T14:09:23.621Z,11.20
2022-12-22T14:11:53.224Z,11.30
2022-12-22T14:14:28.275Z,11.50
2022-12-22T14:16:59.579Z,11.50
2022-12-22T14:19:28.218Z,11.50
2022-12-22T14:22:03.492Z,11.30
2022-12-22T14:24:38.067Z,11.40
2022-12-22T14:27:06.513Z,11.50
2022-12-22T14:29:33.498Z,11.40
2022-12-22T14:32:02.718Z,11.40
2022-12-22T14:34:30.964Z,11.20
2022-12-22T14:37:01.221Z,11.00
2022-12-22T14:39:30.924Z,10.90
2022-12-22T14:42:13.226Z,10.80
2022-12-22T14:44:44.718Z,10.60
2022-12-22T14:47:17.891Z,10.50
2022-12-22T14:49:52.644Z,10.40
2022-12-22T14:52:37.721Z,10.40
2022-12-22T14:55:05.875Z,10.40
2022-12-22T14:57:36.557Z,10.30
2022-12-22T15:00:08.703Z,10.30
2022-12-22T15:02:40.051Z,10.30
2022-12-22T15:05:16.143Z,10.20
2022-12-22T15:10:37.975Z,10.30
2022-12-22T15:13:05.693Z,10.20
2022-12-22T15:15:33.417Z,10.20
2022-12-22T15:18:00.382Z,10.10
2022-12-22T15:31:28.852Z,10.10
2022-12-22T15:33:57.800Z,10.00
2022-12-22T15:36:24.801Z,10.00
2022-12-22T15:38:51.781Z,9.90
2022-12-22T15:41:18.727Z,9.90
2022-12-22T15:44:01.023Z,9.90
2022-12-22T15:46:28.057Z,9.80
2022-12-22T15:48:55.080Z,9.80
2022-12-22T15:51:26.675Z,9.80
2022-12-22T15:53:54.389Z,9.80
2022-12-22T15:56:23.383Z,9.80
2022-12-22T15:58:50.220Z,9.70
2022-12-22T16:01:17.248Z,9.80
2022-12-22T16:03:44.210Z,9.80
2022-12-22T16:06:15.591Z,9.80
2022-12-22T16:08:45.213Z,9.80
2022-12-22T16:11:12.121Z,9.80
2022-12-22T16:13:39.392Z,9.70
2022-12-22T16:16:06.819Z,9.80
2022-12-22T16:18:34.315Z,9.80
2022-12-22T16:21:07.768Z,9.80
2022-12-22T16:23:36.127Z,9.80
2022-12-22T16:26:04.085Z,9.80
2022-12-22T16:28:31.176Z,9.80
2022-12-22T16:30:58.191Z,9.90
2022-12-22T16:33:25.132Z,9.90
2022-12-22T16:35:52.149Z,9.80
2022-12-22T16:38:19.719Z,9.80
2022-12-22T16:40:48.081Z,9.90
2022-12-22T16:46:12.772Z,9.90
2022-12-22T16:48:40.925Z,9.90
2022-12-22T16:51:07.926Z,9.90
2022-12-22T16:53:34.860Z,9.90
2022-12-22T16:56:01.763Z,9.90
2022-12-22T16:58:28.733Z,9.80
2022-12-22T17:00:55.642Z,9.80
2022-12-22T17:03:27.369Z,9.80
2022-12-22T17:05:56.248Z,9.80
2022-12-22T17:08:34.218Z,9.70
2022-12-22T17:11:10.047Z,9.90
2022-12-22T17:13:37.338Z,9.80
2022-12-22T17:16:05.284Z,9.80
2022-12-22T17:18:32.903Z,9.80
2022-12-22T17:21:00.194Z,9.70
2022-12-22T17:23:31.021Z,9.70
2022-12-22T17:25:59.168Z,9.80
2022-12-22T17:28:26.821Z,9.80
2022-12-22T17:30:53.785Z,9.80
2022-12-22T17:33:20.678Z,9.70
2022-12-22T17:35:47.870Z,9.70
2022-12-22T17:38:15.676Z,9.70
2022-12-22T17:40:42.917Z,9.70
2022-12-22T17:43:19.552Z,9.70
2022-12-22T17:45:46.719Z,9.70
2022-12-22T17:48:14.178Z,9.80
2022-12-22T17:50:42.220Z,9.80
2022-12-22T17:53:14.309Z,9.70
2022-12-22T17:56:07.224Z,9.60
2022-12-22T17:58:28.354Z,9.70
2022-12-22T18:00:55.307Z,9.60
2022-12-22T18:03:22.514Z,9.60
2022-12-22T18:05:49.649Z,9.60
2022-12-22T18:08:18.576Z,9.50
2022-12-22T18:10:46.206Z,9.50
2022-12-22T18:13:20.810Z,9.40
2022-12-22T18:15:47.879Z,9.30
2022-12-22T18:18:15.688Z,9.40
2022-12-22T18:20:42.704Z,9.30
2022-12-22T18:23:23.662Z,9.30
2022-12-22T18:25:50.662Z,9.40
2022-12-22T18:28:17.727Z,9.40
2022-12-22T18:30:45.090Z,9.40
2022-12-22T18:33:11.986Z,9.30
2022-12-22T18:35:39.465Z,9.40
2022-12-22T18:38:07.475Z,9.40
2022-12-22T18:40:36.867Z,9.40
2022-12-22T18:43:06.519Z,9.50
2022-12-22T18:45:33.549Z,9.40
2022-12-22T18:48:00.482Z,9.30
2022-12-22T18:50:29.010Z,9.20
2022-12-22T18:53:01.334Z,9.20
2022-12-22T18:55:30.479Z,9.20
2022-12-22T18:57:59.115Z,9.20
2022-12-22T19:00:30.979Z,9.20
2022-12-22T19:02:59.363Z,9.20
2022-12-22T19:05:28.428Z,9.30
2022-12-22T19:07:55.717Z,9.20
2022-12-22T19:10:22.795Z,9.30
2022-12-22T19:12:51.012Z,9.30
2022-12-22T19:15:23.733Z,9.40
2022-12-22T19:17:51.241Z,9.40
2022-12-22T19:20:19.531Z,9.30
2022-12-22T19:22:46.533Z,9.40
2022-12-22T19:25:17.742Z,9.40
2022-12-22T19:27:45.962Z,9.30
2022-12-22T19:30:17.683Z,9.40
2022-12-22T19:32:46.334Z,9.30
2022-12-22T19:35:14.523Z,9.30
2022-12-22T19:37:41.412Z,9.30
2022-12-22T19:40:08.635Z,9.20
2022-12-22T19:42:35.894Z,9.20
2022-12-22T19:45:10.211Z,9.20
2022-12-22T19:47:38.469Z,9.20
2022-12-22T19:50:07.126Z,9.20
2022-12-22T19:52:33.999Z,9.20
2022-12-22T19:55:00.966Z,9.30
2022-12-22T19:57:27.835Z,9.20
2022-12-22T19:59:54.882Z,9.30
2022-12-22T20:02:22.299Z,9.30
2022-12-22T20:04:49.992Z,9.30
2022-12-22T20:07:17.812Z,9.30
2022-12-22T20:09:44.791Z,9.20
2022-12-22T20:12:20.617Z,9.10
2022-12-22T20:14:47.542Z,9.00
2022-12-22T20:17:14.456Z,9.00
2022-12-22T20:19:41.362Z,9.00
2022-12-22T20:22:10.044Z,8.80
2022-12-22T20:24:37.423Z,8.80
2022-12-22T20:27:04.447Z,8.90
2022-12-22T20:29:31.521Z,8.90
2022-12-22T20:31:58.567Z,8.90
2022-12-22T20:34:25.453Z,8.80
2022-12-22T20:36:52.520Z,8.80
2022-12-22T20:39:20.727Z,8.70
2022-12-22T20:41:52.914Z,8.70
2022-12-22T20:44:20.839Z,8.70
2022-12-22T20:46:47.713Z,8.70
2022-12-22T20:49:15.597Z,8.70
2022-12-22T20:51:42.813Z,8.70
2022-12-22T20:54:13.225Z,8.70
2022-12-22T20:56:40.323Z,8.70
2022-12-22T20:59:12.518Z,8.60
2022-12-22T21:01:39.613Z,8.70
2022-12-22T21:04:06.686Z,8.80
2022-12-22T21:06:34.853Z,8.80
2022-12-22T21:09:01.752Z,8.70
2022-12-22T21:11:29.409Z,8.80
2022-12-22T21:13:57.122Z,8.70
2022-12-22T21:16:26.133Z,8.80
2022-12-22T21:18:53.742Z,8.90
2022-12-22T21:21:21.067Z,8.80
2022-12-22T21:23:48.131Z,8.80
2022-12-22T21:26:19.620Z,8.80
2022-12-22T21:28:46.711Z,8.80
2022-12-22T21:31:13.770Z,8.90
2022-12-22T21:33:41.055Z,8.90
2022-12-22T21:36:14.215Z,8.90
2022-12-22T21:38:41.498Z,8.70
2022-12-22T21:41:08.473Z,8.80
2022-12-22T21:43:35.467Z,8.80
2022-12-22T21:46:02.409Z,8.90
2022-12-22T21:48:29.439Z,8.80
2022-12-22T21:50:56.360Z,8.80
2022-12-22T21:53:23.262Z,8.80
2022-12-22T21:55:50.368Z,8.80
2022-12-22T21:58:17.710Z,8.90
2022-12-22T22:00:47.213Z,8.90
2022-12-22T22:03:14.828Z,8.80
2022-12-22T22:05:42.402Z,8.70
2022-12-22T22:08:10.381Z,8.80
2022-12-22T22:10:41.686Z,8.80
2022-12-22T22:13:11.361Z,8.70
2022-12-22T22:15:38.450Z,8.80
2022-12-22T22:18:07.569Z,8.80
2022-12-22T22:20:34.746Z,8.80
2022-12-22T22:23:01.910Z,8.70
2022-12-22T22:25:28.976Z,8.80
2022-12-22T22:27:58.861Z,8.90
2022-12-22T22:30:26.320Z,8.80
2022-12-22T22:32:53.863Z,8.80
2022-12-22T22:35:21.257Z,8.90
2022-12-22T22:37:50.759Z,8.80
2022-12-22T22:40:19.249Z,8.70
2022-12-22T22:42:46.199Z,8.60
2022-12-22T22:45:13.542Z,8.60
2022-12-22T22:47:40.472Z,8.60
2022-12-22T22:50:08.875Z,8.60
2022-12-22T22:52:36.374Z,8.60
2022-12-22T22:55:03.328Z,8.70
2022-12-22T22:57:30.244Z,8.80
2022-12-22T22:59:57.073Z,8.80
2022-12-22T23:02:24.209Z,8.80
2022-12-22T23:04:51.134Z,8.90
2022-12-22T23:07:17.957Z,8.90
2022-12-22T23:09:44.858Z,8.90
2022-12-22T23:12:11.701Z,8.90
2022-12-22T23:14:38.712Z,8.80
2022-12-22T23:17:05.750Z,9.00
2022-12-22T23:19:32.574Z,8.90
2022-12-22T23:21:59.553Z,8.90
2022-12-22T23:24:26.737Z,9.00
2022-12-22T23:26:53.699Z,9.10
2022-12-22T23:29:20.726Z,9.00
2022-12-22T23:31:47.722Z,8.90
2022-12-22T23:34:14.811Z,9.00
2022-12-22T23:36:41.690Z,9.00
2022-12-22T23:39:08.613Z,8.90
2022-12-22T23:41:35.624Z,9.00
2022-12-22T23:44:02.667Z,9.10
2022-12-22T23:46:29.564Z,9.10
2022-12-22T23:48:57.747Z,9.10
2022-12-22T23:51:26.689Z,9.00
2022-12-22T23:53:54.145Z,9.00
2022-12-22T23:56:21.091Z,8.90
2022-12-22T23:58:52.577Z,9.10
